Girard, Kansas
Current Conditions -  °F | °C
As of 2:15 PM on Sunday 21 Dec 2014 (Local Time) from KPTS Reporting Station
Overcast Overcast  
Wind Chill: 44°   Ceiling: 2000
Heat Index: 48°   Visibility: 10mi
Dew Point: 47°   Wind: 9mph
Humidity: 93%   Direction: 190°S
Pressure: 29.88"   Gusts: NA
Location:  37.51°N, 94.84°W
Report Text: KPTS 212015Z AUTO 19008KT 10SM SCT014 BKN020 OVC036 09/08 A2988 RMK AO2 T00910081
Loading
Personal Weather Stations






























Interactive Weather Map New forecast layout! Learn more

10-Day Weather Forecast

Advertisements
Track Severe Weather on mobile